PHL weather

Philadelphia International Airport
Philadelphia, Pennsylvania, United States

Public forecast

Using degrees Fahrenheit for public forecast. Weather courtesy of forecast.io.

METAR (pilot weather report)

Retrieved 2019/02/17 12:54 UTC (33 minutes ago):

KPHL 171254Z 02005KT 10SM FEW220 BKN250 M03/M09 A3019 RMK AO2 SLP221 T10281094 $

TAF (pilot weather forecast)

Retrieved 2019/02/17 12:28 UTC (59 minutes ago):

TAF KPHL 171126Z 1712/1818 VRB03KT P6SM FEW200 FM171900 VRB03KT P6SM SCT070 BKN150 FM180200 12006KT 3SM -SNRA OVC010 FM180400 11005KT 3SM -RA OVC008 FM180800 11005KT 2SM -RA BR OVC003 FM181100 VRB03KT 5SM BR OVC006 FM181400 30008KT P6SM BKN030